createdAt,value
2019-03-17T00:00:10.353Z,97629.97
2019-03-17T00:02:38.896Z,97627.92
2019-03-17T00:05:07.529Z,97636.17
2019-03-17T00:07:36.006Z,97631.08
2019-03-17T00:10:04.944Z,97625.47
2019-03-17T00:12:33.457Z,97622.31
2019-03-17T00:15:05.732Z,97620.50
2019-03-17T00:17:32.658Z,97626.53
2019-03-17T00:20:01.137Z,97616.98
2019-03-17T00:22:29.642Z,97617.88
2019-03-17T00:25:08.428Z,97617.77
2019-03-17T00:27:28.383Z,97609.00
2019-03-17T00:29:56.860Z,97604.04
2019-03-17T00:32:25.351Z,97598.58
2019-03-17T00:34:53.824Z,97589.49
2019-03-17T00:37:22.329Z,97585.94
2019-03-17T00:39:50.783Z,97579.70
2019-03-17T00:42:19.281Z,97575.23
2019-03-17T00:44:47.752Z,97568.84
2019-03-17T00:47:16.238Z,97567.94
2019-03-17T00:49:44.717Z,97560.67
2019-03-17T00:52:13.216Z,97559.09
2019-03-17T00:54:41.691Z,97559.20
2019-03-17T00:57:10.446Z,97554.11
2019-03-17T00:59:38.928Z,97551.40
2019-03-17T01:02:07.427Z,97552.02
2019-03-17T01:04:35.902Z,97551.77
2019-03-17T01:07:04.471Z,97539.28
2019-03-17T01:09:32.970Z,97538.08
2019-03-17T01:12:01.608Z,97536.91
2019-03-17T01:14:30.169Z,97527.77
2019-03-17T01:16:58.670Z,97531.44
2019-03-17T01:19:27.237Z,97534.58
2019-03-17T01:21:55.743Z,97527.73
2019-03-17T01:24:24.329Z,97531.76
2019-03-17T01:26:52.783Z,97531.17
2019-03-17T01:29:21.285Z,97527.70
2019-03-17T01:31:49.754Z,97528.39
2019-03-17T01:34:18.256Z,97532.72
2019-03-17T01:36:46.742Z,97528.57
2019-03-17T01:39:15.234Z,97522.34
2019-03-17T01:41:43.704Z,97524.29
2019-03-17T01:44:12.265Z,97521.88
2019-03-17T01:46:40.728Z,97519.20
2019-03-17T01:49:09.228Z,97522.28
2019-03-17T01:51:37.765Z,97526.38
2019-03-17T01:54:06.315Z,97534.89
2019-03-17T01:56:34.847Z,97528.55
2019-03-17T01:59:03.400Z,97532.34
2019-03-17T02:01:31.856Z,97534.30
2019-03-17T02:04:00.331Z,97536.05
2019-03-17T02:06:28.812Z,97533.52
2019-03-17T02:08:57.290Z,97524.75
2019-03-17T02:11:25.760Z,97525.55
2019-03-17T02:13:54.240Z,97523.92
2019-03-17T02:16:22.715Z,97523.35
2019-03-17T02:18:51.219Z,97524.02
2019-03-17T02:23:46.166Z,97514.58
2019-03-17T02:26:14.642Z,97507.17
2019-03-17T02:28:43.279Z,97505.84
2019-03-17T02:31:11.784Z,97504.42
2019-03-17T02:33:40.281Z,97501.17
2019-03-17T02:36:08.756Z,97499.66
2019-03-17T02:38:37.235Z,97501.34
2019-03-17T02:41:05.788Z,97510.50
2019-03-17T02:43:34.269Z,97505.15
2019-03-17T02:46:03.209Z,97501.26
2019-03-17T02:48:31.711Z,97499.63
2019-03-17T02:51:00.188Z,97500.27
2019-03-17T02:53:28.661Z,97503.08
2019-03-17T02:55:57.172Z,97496.56
2019-03-17T02:58:25.650Z,97494.83
2019-03-17T03:00:54.154Z,97489.98
2019-03-17T03:03:22.620Z,97491.83
2019-03-17T03:05:55.163Z,97492.77
2019-03-17T03:08:21.276Z,97490.40
2019-03-17T03:10:49.755Z,97479.94
2019-03-17T03:13:18.242Z,97481.34
2019-03-17T03:15:46.711Z,97485.09
2019-03-17T03:18:15.213Z,97485.46
2019-03-17T03:20:43.684Z,97478.14
2019-03-17T03:23:12.162Z,97478.83
2019-03-17T03:25:40.648Z,97481.62
2019-03-17T03:28:09.156Z,97484.64
2019-03-17T03:30:37.658Z,97480.12
2019-03-17T03:33:06.126Z,97469.08
2019-03-17T03:35:34.600Z,97470.20
2019-03-17T03:38:03.072Z,97466.12
2019-03-17T03:40:31.616Z,97472.27
2019-03-17T03:43:00.103Z,97471.17
2019-03-17T03:45:28.600Z,97469.33
2019-03-17T03:47:57.078Z,97472.36
2019-03-17T03:50:25.557Z,97465.40
2019-03-17T03:52:54.039Z,97460.19
2019-03-17T03:55:22.498Z,97463.55
2019-03-17T03:57:51.028Z,97457.80
2019-03-17T04:00:19.561Z,97469.73
2019-03-17T04:02:48.061Z,97484.64
2019-03-17T04:05:16.594Z,97476.17
2019-03-17T04:07:45.089Z,97478.77
2019-03-17T04:10:13.726Z,97477.13
2019-03-17T04:12:42.221Z,97474.76
2019-03-17T04:15:11.537Z,97467.30
2019-03-17T04:17:40.106Z,97466.19
2019-03-17T04:20:11.126Z,97457.48
2019-03-17T04:22:39.572Z,97461.86
2019-03-17T04:25:08.349Z,97463.48
2019-03-17T04:27:36.932Z,97463.61
2019-03-17T04:30:08.396Z,97472.86
2019-03-17T04:32:36.840Z,97464.86
2019-03-17T04:35:06.780Z,97460.68
2019-03-17T04:37:35.321Z,97458.26
2019-03-17T04:40:04.687Z,97461.73
2019-03-17T04:42:33.160Z,97454.80
2019-03-17T04:45:01.669Z,97453.59
2019-03-17T04:47:30.213Z,97454.60
2019-03-17T04:49:58.672Z,97459.09
2019-03-17T04:52:27.501Z,97459.05
2019-03-17T04:54:55.977Z,97456.52
2019-03-17T04:57:24.458Z,97456.58
2019-03-17T04:59:52.975Z,97461.03
2019-03-17T05:02:21.453Z,97454.11
2019-03-17T05:04:49.933Z,97443.32
2019-03-17T05:07:18.422Z,97444.81
2019-03-17T05:09:46.920Z,97446.30
2019-03-17T05:12:15.429Z,97440.70
2019-03-17T05:14:43.933Z,97450.64
2019-03-17T05:17:12.396Z,97443.98
2019-03-17T05:19:40.875Z,97446.99
2019-03-17T05:22:09.353Z,97450.64
2019-03-17T05:24:37.851Z,97449.46
2019-03-17T05:27:06.329Z,97445.36
2019-03-17T05:29:34.802Z,97449.47
2019-03-17T05:32:03.294Z,97447.93
2019-03-17T05:34:31.809Z,97450.55
2019-03-17T05:37:05.990Z,97447.81
2019-03-17T05:39:30.470Z,97439.11
2019-03-17T05:41:58.955Z,97444.09
2019-03-17T05:44:27.438Z,97445.34
2019-03-17T05:46:55.920Z,97444.37
2019-03-17T05:49:24.387Z,97449.88
2019-03-17T05:51:52.895Z,97445.97
2019-03-17T05:54:22.885Z,97441.11
2019-03-17T05:56:51.356Z,97443.62
2019-03-17T05:59:19.890Z,97448.28
2019-03-17T06:01:48.390Z,97449.33
2019-03-17T06:04:16.865Z,97442.09
2019-03-17T06:06:45.332Z,97447.49
2019-03-17T06:09:13.833Z,97447.57
2019-03-17T06:11:42.317Z,97446.30
2019-03-17T06:14:10.835Z,97448.30
2019-03-17T06:16:39.315Z,97435.56
2019-03-17T06:19:10.077Z,97438.83
2019-03-17T06:21:38.541Z,97442.61
2019-03-17T06:24:07.429Z,97439.67
2019-03-17T06:26:35.960Z,97441.15
2019-03-17T06:29:04.429Z,97444.48
2019-03-17T06:31:32.928Z,97442.47
2019-03-17T06:34:01.427Z,97435.73
2019-03-17T06:36:29.895Z,97441.88
2019-03-17T06:38:58.386Z,97436.18
2019-03-17T06:41:26.856Z,97443.88
2019-03-17T06:43:55.389Z,97434.43
2019-03-17T06:46:23.858Z,97429.55
2019-03-17T06:48:52.344Z,97416.63
2019-03-17T06:51:20.824Z,97426.98
2019-03-17T06:53:56.414Z,97427.61
2019-03-17T06:56:19.517Z,97417.09
2019-03-17T06:58:48.017Z,97411.48
2019-03-17T07:01:16.501Z,97417.75
2019-03-17T07:03:44.982Z,97407.38
2019-03-17T07:06:13.463Z,97409.03
2019-03-17T07:08:41.930Z,97411.55
2019-03-17T07:11:11.308Z,97413.16
2019-03-17T07:13:39.752Z,97419.02
2019-03-17T07:16:08.257Z,97427.80
2019-03-17T07:18:36.722Z,97426.87
2019-03-17T07:21:05.298Z,97439.66
2019-03-17T07:23:34.436Z,97437.97
2019-03-17T07:26:04.628Z,97432.12
2019-03-17T07:28:33.110Z,97434.73
2019-03-17T07:31:01.583Z,97434.88
2019-03-17T07:33:30.063Z,97431.84
2019-03-17T07:35:58.579Z,97422.98
2019-03-17T07:38:27.190Z,97426.21
2019-03-17T07:40:55.633Z,97426.89
2019-03-17T07:43:24.113Z,97427.59
2019-03-17T07:45:52.618Z,97407.31
2019-03-17T07:48:21.093Z,97418.59
2019-03-17T07:50:49.602Z,97419.30
2019-03-17T07:53:18.086Z,97428.05
2019-03-17T07:55:46.589Z,97437.73
2019-03-17T07:58:15.132Z,97433.52
2019-03-17T08:00:43.638Z,97424.12
2019-03-17T08:03:12.120Z,97435.48
2019-03-17T08:05:40.617Z,97433.59
2019-03-17T08:08:09.992Z,97435.88
2019-03-17T08:10:38.694Z,97442.78
2019-03-17T08:13:07.354Z,97441.09
2019-03-17T08:15:35.896Z,97442.45
2019-03-17T08:18:04.374Z,97445.64
2019-03-17T08:20:32.875Z,97442.70
2019-03-17T08:23:01.379Z,97447.80
2019-03-17T08:25:29.916Z,97449.30
2019-03-17T08:27:58.393Z,97448.48
2019-03-17T08:30:26.868Z,97446.30
2019-03-17T08:32:55.346Z,97444.40
2019-03-17T08:35:23.830Z,97452.45
2019-03-17T08:37:52.315Z,97454.48
2019-03-17T08:40:20.818Z,97458.81
2019-03-17T08:42:49.371Z,97454.23
2019-03-17T08:45:17.894Z,97451.80
2019-03-17T08:47:57.340Z,97451.16
2019-03-17T08:50:16.588Z,97441.66
2019-03-17T08:52:45.071Z,97440.72
2019-03-17T08:55:13.651Z,97439.02
2019-03-17T08:57:42.189Z,97435.94
2019-03-17T09:00:18.908Z,97436.19
2019-03-17T09:02:47.404Z,97426.80
2019-03-17T09:05:16.607Z,97425.72
2019-03-17T09:07:45.152Z,97424.61
2019-03-17T09:10:14.882Z,97427.05
2019-03-17T09:12:43.411Z,97428.50
2019-03-17T09:15:12.152Z,97423.78
2019-03-17T09:17:40.735Z,97418.48
2019-03-17T09:20:13.915Z,97413.58
2019-03-17T09:22:42.360Z,97413.09
2019-03-17T09:25:12.016Z,97410.74
2019-03-17T09:27:40.565Z,97413.74
2019-03-17T09:30:20.062Z,97415.83
2019-03-17T09:32:48.576Z,97420.80
2019-03-17T09:35:17.116Z,97405.44
2019-03-17T09:37:45.616Z,97412.20
2019-03-17T09:40:15.530Z,97409.42
2019-03-17T09:42:44.087Z,97405.25
2019-03-17T09:45:13.631Z,97391.14
2019-03-17T09:47:42.478Z,97399.12
2019-03-17T09:50:16.210Z,97402.19
2019-03-17T09:52:44.784Z,97401.73
2019-03-17T09:55:13.497Z,97404.02
2019-03-17T09:57:41.975Z,97395.84
2019-03-17T10:29:52.206Z,97365.22
2019-03-17T10:32:33.077Z,97358.88
2019-03-17T10:35:01.581Z,97352.33
2019-03-17T10:37:30.060Z,97352.48
2019-03-17T10:39:58.547Z,97341.50
2019-03-17T10:42:27.023Z,97336.92
2019-03-17T10:44:57.030Z,97329.33
2019-03-17T10:47:25.517Z,97329.33
2019-03-17T10:49:54.021Z,97331.28
2019-03-17T10:52:22.489Z,97331.05
2019-03-17T10:54:52.529Z,97321.48
2019-03-17T10:57:21.004Z,97339.28
2019-03-17T10:59:49.514Z,97329.12
2019-03-17T11:02:18.122Z,97328.91
2019-03-17T11:04:46.719Z,97325.83
2019-03-17T11:07:15.287Z,97322.67
2019-03-17T11:09:43.778Z,97325.00
2019-03-17T11:12:12.325Z,97322.43
2019-03-17T11:14:40.810Z,97317.22
2019-03-17T11:17:09.316Z,97319.03
2019-03-17T11:19:37.795Z,97307.02
2019-03-17T11:22:06.304Z,97301.88
2019-03-17T11:24:34.882Z,97305.02
2019-03-17T11:27:03.358Z,97296.13
2019-03-17T11:29:31.873Z,97287.78
2019-03-17T11:32:00.386Z,97290.33
2019-03-17T11:34:28.857Z,97281.98
2019-03-17T11:36:57.365Z,97278.00
2019-03-17T11:39:37.295Z,97286.00
2019-03-17T11:41:56.070Z,97276.80
2019-03-17T11:44:24.549Z,97273.90
2019-03-17T11:46:53.134Z,97268.05
2019-03-17T11:49:21.688Z,97260.84
2019-03-17T11:51:50.227Z,97254.98
2019-03-17T11:54:18.710Z,97240.58
2019-03-17T11:56:47.188Z,97245.09
2019-03-17T11:59:15.695Z,97239.16
2019-03-17T12:01:44.165Z,97235.45
2019-03-17T12:04:12.676Z,97237.08
2019-03-17T12:06:41.219Z,97233.17
2019-03-17T12:09:09.735Z,97240.23
2019-03-17T12:11:38.223Z,97226.47
2019-03-17T12:14:09.701Z,97225.00
2019-03-17T12:16:37.075Z,97221.56
2019-03-17T12:19:05.694Z,97225.48
2019-03-17T12:21:34.208Z,97223.30
2019-03-17T12:24:02.957Z,97224.33
2019-03-17T12:26:31.502Z,97218.94
2019-03-17T12:28:59.999Z,97217.73
2019-03-17T12:31:30.038Z,97217.73
2019-03-17T12:33:58.521Z,97217.53
2019-03-17T12:36:26.995Z,97211.63
2019-03-17T12:38:55.556Z,97209.81
2019-03-17T12:41:24.032Z,97212.37
2019-03-17T12:43:52.586Z,97212.37
2019-03-17T12:46:21.056Z,97216.36
2019-03-17T12:48:49.535Z,97208.15
2019-03-17T12:51:18.101Z,97208.15
2019-03-17T12:53:46.603Z,97208.34
2019-03-17T12:56:15.166Z,97203.53
2019-03-17T12:58:43.662Z,97209.32
2019-03-17T13:01:12.142Z,97202.74
2019-03-17T13:03:40.670Z,97192.51
2019-03-17T13:06:11.861Z,97192.51
2019-03-17T13:08:40.328Z,97194.33
2019-03-17T13:11:10.494Z,97194.59
2019-03-17T13:13:38.979Z,97193.24
2019-03-17T13:16:07.568Z,97192.20
2019-03-17T13:18:36.037Z,97192.35
2019-03-17T13:21:04.522Z,97193.84
2019-03-17T13:23:33.026Z,97198.40
2019-03-17T13:26:01.502Z,97194.38
2019-03-17T13:28:30.153Z,97197.00
2019-03-17T13:30:58.701Z,97198.66
2019-03-17T13:33:27.212Z,97195.25
2019-03-17T13:35:55.731Z,97204.10
2019-03-17T13:38:24.274Z,97203.02
2019-03-17T13:40:52.775Z,97205.41
2019-03-17T13:43:21.314Z,97211.80
2019-03-17T13:45:51.283Z,97215.33
2019-03-17T13:48:19.768Z,97217.63
2019-03-17T13:50:50.428Z,97210.79
2019-03-17T13:53:18.897Z,97221.58
2019-03-17T13:55:47.366Z,97218.80
2019-03-17T13:58:15.878Z,97219.93
2019-03-17T14:00:44.533Z,97229.06
2019-03-17T14:03:13.666Z,97229.16
2019-03-17T14:05:42.172Z,97226.47
2019-03-17T14:08:10.875Z,97225.19
2019-03-17T14:10:41.421Z,97223.20
2019-03-17T14:13:11.128Z,97236.41
2019-03-17T14:15:41.155Z,97235.98
2019-03-17T14:18:09.667Z,97231.39
2019-03-17T14:20:38.196Z,97232.01
2019-03-17T14:23:06.696Z,97224.80
2019-03-17T14:25:36.937Z,97226.41
2019-03-17T14:28:05.694Z,97189.72
2019-03-17T14:30:34.301Z,97214.44
2019-03-17T14:33:04.387Z,97207.48
2019-03-17T14:35:32.872Z,97208.06
2019-03-17T14:38:01.445Z,97205.23
2019-03-17T14:40:31.319Z,97200.55
2019-03-17T14:42:59.938Z,97188.28
2019-03-17T14:45:28.449Z,97190.16
2019-03-17T14:47:57.091Z,97189.75
2019-03-17T14:50:26.116Z,97197.70
2019-03-17T14:52:55.363Z,97193.10
2019-03-17T14:55:24.079Z,97202.33
2019-03-17T14:57:52.594Z,97191.78
2019-03-17T15:00:22.010Z,97194.91
2019-03-17T15:02:50.654Z,97189.88
2019-03-17T15:05:19.193Z,97189.88
2019-03-17T15:07:47.703Z,97192.16
2019-03-17T15:10:22.573Z,97189.55
2019-03-17T15:12:52.696Z,97181.30
2019-03-17T15:15:22.221Z,97180.98
2019-03-17T15:17:50.788Z,97167.81
2019-03-17T15:20:20.614Z,97175.97
2019-03-17T15:22:49.180Z,97172.70
2019-03-17T15:25:17.962Z,97175.13
2019-03-17T15:27:46.437Z,97166.12
2019-03-17T15:30:23.251Z,97172.53
2019-03-17T15:32:51.792Z,97166.05
2019-03-17T15:35:20.307Z,97172.87
2019-03-17T15:37:48.954Z,97167.80
2019-03-17T15:40:22.073Z,97170.82
2019-03-17T15:42:50.723Z,97179.95
2019-03-17T15:45:20.676Z,97172.28
2019-03-17T15:47:49.216Z,97167.72
2019-03-17T15:50:22.028Z,97166.57
2019-03-17T15:52:50.658Z,97168.27
2019-03-17T15:55:19.295Z,97160.44
2019-03-17T15:57:47.868Z,97156.91
2019-03-17T16:00:26.274Z,97155.66
2019-03-17T16:02:53.563Z,97146.27
2019-03-17T16:05:22.381Z,97146.52
2019-03-17T16:07:51.016Z,97145.70
2019-03-17T16:10:27.213Z,97143.56
2019-03-17T16:12:55.777Z,97138.58
2019-03-17T16:15:24.254Z,97128.43
2019-03-17T16:17:52.750Z,97127.01
2019-03-17T16:20:28.110Z,97125.34
2019-03-17T16:22:56.888Z,97125.28
2019-03-17T16:25:27.749Z,97116.51
2019-03-17T16:27:56.326Z,97113.67
2019-03-17T16:30:30.342Z,97108.77
2019-03-17T16:32:58.948Z,97116.20
2019-03-17T16:35:27.513Z,97113.16
2019-03-17T16:37:56.239Z,97122.17
2019-03-17T16:40:31.583Z,97116.98
2019-03-17T16:43:00.167Z,97117.09
2019-03-17T16:45:28.997Z,97118.73
2019-03-17T16:47:57.584Z,97114.02
2019-03-17T16:50:26.297Z,97122.92
2019-03-17T16:52:54.778Z,97114.63
2019-03-17T16:55:23.323Z,97119.41
2019-03-17T16:57:51.888Z,97115.48
2019-03-17T17:00:25.529Z,97118.59
2019-03-17T17:02:54.192Z,97118.52
2019-03-17T17:05:23.822Z,97113.03
2019-03-17T17:07:52.385Z,97107.78
2019-03-17T17:10:30.797Z,97106.85
2019-03-17T17:12:59.480Z,97110.05
2019-03-17T17:15:32.312Z,97104.52
2019-03-17T17:18:00.799Z,97102.67
2019-03-17T17:20:30.655Z,97098.32
2019-03-17T17:22:59.205Z,97099.05
2019-03-17T17:25:27.720Z,97098.95
2019-03-17T17:27:56.501Z,97108.34
2019-03-17T17:30:25.006Z,97106.58
2019-03-17T17:32:53.548Z,97101.58
2019-03-17T17:35:22.051Z,97104.17
2019-03-17T17:37:50.730Z,97103.11
2019-03-17T17:40:23.098Z,97095.95
2019-03-17T17:42:51.662Z,97100.78
2019-03-17T17:45:25.140Z,97097.95
2019-03-17T17:47:53.634Z,97104.55
2019-03-17T17:50:23.452Z,97108.74
2019-03-17T17:52:51.967Z,97111.58
2019-03-17T17:55:21.535Z,97114.95
2019-03-17T17:57:52.613Z,97114.34
2019-03-17T18:00:22.898Z,97115.16
2019-03-17T18:02:52.931Z,97119.14
2019-03-17T18:05:21.483Z,97134.31
2019-03-17T18:07:49.986Z,97141.79
2019-03-17T18:10:19.307Z,97149.78
2019-03-17T18:12:47.880Z,97161.08
2019-03-17T18:15:27.148Z,97156.73
2019-03-17T18:17:55.641Z,97159.91
2019-03-17T18:20:24.194Z,97166.83
2019-03-17T18:22:52.847Z,97161.64
2019-03-17T18:25:24.286Z,97160.73
2019-03-17T18:27:52.768Z,97157.47
2019-03-17T18:30:23.751Z,97159.70
2019-03-17T18:32:52.419Z,97158.34
2019-03-17T18:35:21.067Z,97164.44
2019-03-17T18:37:51.067Z,97170.61
2019-03-17T18:40:20.811Z,97163.20
2019-03-17T18:42:49.404Z,97162.76
2019-03-17T18:45:25.449Z,97162.41
2019-03-17T18:47:53.996Z,97160.64
2019-03-17T18:50:22.473Z,97157.75
2019-03-17T18:52:51.856Z,97156.39
2019-03-17T18:55:20.333Z,97150.37
2019-03-17T18:57:49.040Z,97146.83
2019-03-17T19:00:19.781Z,97147.97
2019-03-17T19:02:48.550Z,97147.44
2019-03-17T19:05:19.987Z,97142.97
2019-03-17T19:07:48.125Z,97140.68
2019-03-17T19:10:21.201Z,97134.19
2019-03-17T19:12:50.917Z,97128.98
2019-03-17T19:15:21.336Z,97128.13
2019-03-17T19:17:50.083Z,97126.42
2019-03-17T19:20:19.528Z,97129.38
2019-03-17T19:22:48.424Z,97129.59
2019-03-17T19:25:21.968Z,97127.13
2019-03-17T19:27:52.025Z,97131.82
2019-03-17T19:30:23.903Z,97132.66
2019-03-17T19:32:52.454Z,97125.46
2019-03-17T19:35:21.258Z,97123.14
2019-03-17T19:37:49.920Z,97134.50
2019-03-17T19:40:25.398Z,97136.79
2019-03-17T19:42:59.374Z,97135.19
2019-03-17T19:45:24.389Z,97135.37
2019-03-17T19:47:53.090Z,97138.70
2019-03-17T19:50:22.486Z,97129.98
2019-03-17T19:52:55.150Z,97135.07
2019-03-17T19:55:23.632Z,97128.45
2019-03-17T19:57:52.120Z,97126.43
2019-03-17T20:00:21.649Z,97133.52
2019-03-17T20:02:50.157Z,97128.80
2019-03-17T20:05:18.633Z,97121.73
2019-03-17T20:07:47.145Z,97123.83
2019-03-17T20:10:18.703Z,97124.55
2019-03-17T20:12:47.183Z,97126.61
2019-03-17T20:15:15.679Z,97123.70
2019-03-17T20:17:44.177Z,97119.08
2019-03-17T20:20:14.208Z,97124.19
2019-03-17T20:22:42.822Z,97127.10
2019-03-17T20:25:11.430Z,97134.75
2019-03-17T20:27:39.903Z,97133.08
2019-03-17T20:30:14.641Z,97132.89
2019-03-17T20:32:43.273Z,97126.70
2019-03-17T20:35:13.006Z,97125.44
2019-03-17T20:37:41.524Z,97122.34
2019-03-17T20:40:13.442Z,97127.70
2019-03-17T20:42:41.222Z,97129.65
2019-03-17T20:45:14.012Z,97132.20
2019-03-17T20:47:42.705Z,97123.25
2019-03-17T20:50:15.261Z,97134.89
2019-03-17T20:52:43.763Z,97137.86
2019-03-17T20:55:12.922Z,97143.22
2019-03-17T20:57:41.637Z,97144.01
2019-03-17T21:00:20.304Z,97149.04
2019-03-17T21:02:48.917Z,97143.91
2019-03-17T21:05:17.627Z,97140.44
2019-03-17T21:07:46.211Z,97141.66
2019-03-17T21:10:16.572Z,97136.84
2019-03-17T21:12:45.186Z,97135.55
2019-03-17T21:15:16.013Z,97128.36
2019-03-17T21:17:44.495Z,97133.16
2019-03-17T21:20:24.151Z,97133.39
2019-03-17T21:22:52.621Z,97152.58
2019-03-17T21:25:21.169Z,97185.88
2019-03-17T21:27:49.674Z,97226.09
2019-03-17T21:30:27.095Z,97236.45
2019-03-17T21:32:55.546Z,97239.96
2019-03-17T21:35:24.045Z,97267.44
2019-03-17T21:37:52.542Z,97250.41
2019-03-17T21:40:21.082Z,97271.67
2019-03-17T21:42:50.481Z,97280.02
2019-03-17T21:45:19.027Z,97290.60
2019-03-17T21:47:47.487Z,97295.95
2019-03-17T21:50:17.329Z,97298.38
2019-03-17T21:52:45.870Z,97327.05
2019-03-17T21:55:14.713Z,97330.36
2019-03-17T21:57:43.203Z,97320.41
2019-03-17T22:00:19.318Z,97333.18
2019-03-17T22:02:49.576Z,97321.36
2019-03-17T22:05:18.198Z,97335.08
2019-03-17T22:07:51.047Z,97347.47
2019-03-17T22:10:18.399Z,97344.23
2019-03-17T22:12:47.003Z,97353.81
2019-03-17T22:15:16.439Z,97356.16
2019-03-17T22:17:45.024Z,97366.27
2019-03-17T22:20:17.066Z,97370.30
2019-03-17T22:22:45.617Z,97367.58
2019-03-17T22:25:17.433Z,97382.46
2019-03-17T22:27:45.906Z,97388.40
2019-03-17T22:30:20.138Z,97401.01
2019-03-17T22:32:48.764Z,97412.94
2019-03-17T22:35:17.301Z,97404.41
2019-03-17T22:37:45.774Z,97406.40
2019-03-17T22:40:18.233Z,97410.96
2019-03-17T22:42:47.066Z,97410.81
2019-03-17T22:45:17.269Z,97414.47
2019-03-17T22:47:45.718Z,97412.70
2019-03-17T22:50:18.916Z,97422.20
2019-03-17T22:52:47.665Z,97425.76
2019-03-17T22:55:16.680Z,97420.86
2019-03-17T22:57:45.176Z,97432.95
2019-03-17T23:00:26.220Z,97436.81
2019-03-17T23:02:54.685Z,97434.95
2019-03-17T23:05:23.176Z,97432.56
2019-03-17T23:07:51.645Z,97436.38
2019-03-17T23:10:20.141Z,97440.95
2019-03-17T23:12:48.616Z,97439.37
2019-03-17T23:15:17.170Z,97454.73
2019-03-17T23:17:45.638Z,97463.55
2019-03-17T23:20:15.885Z,97466.70
2019-03-17T23:22:44.827Z,97479.97
2019-03-17T23:25:13.856Z,97498.42
2019-03-17T23:27:42.335Z,97509.02
2019-03-17T23:30:14.839Z,97531.41
2019-03-17T23:32:43.329Z,97546.63
2019-03-17T23:35:11.934Z,97550.41
2019-03-17T23:37:40.417Z,97560.86
2019-03-17T23:40:13.545Z,97554.23
2019-03-17T23:42:42.024Z,97555.25
2019-03-17T23:45:12.037Z,97559.05
2019-03-17T23:47:40.533Z,97568.39
2019-03-17T23:50:11.320Z,97577.84
2019-03-17T23:52:39.791Z,97581.95
2019-03-17T23:55:13.451Z,97581.42
2019-03-17T23:57:41.971Z,97587.49
